»·PEaware :: SWA381 KLAS-KSAN

SWA381 :: KLAS-KSAN

FLIGHT INFORMATION

Flight Status: Arrived
Operator:
Southwest Airlines
More flights by this operator :: More flights under this callsign
Pilot: Ben F. (2808)
Aircraft: BOEING 737-300
(B733)
More flights by this aircraft type
Origin: KLAS McCarran Intl
United States
Destination: KSAN San Diego Intl-Lindbergh
United States
More flights between these airports :: More routes between these airports
Route: BOACH8 LVELL LUCKI1
File this flight plan on PilotEdge
Remarks:
Altitude:
(Current/Filed)
28,000ft
Speed:
(Current/Filed)
450kts
Departed: 21-Sep-18 08:56 AM
Arrived: 21-Sep-18 09:41 AM
Distance/Time
Traveled:
225nm/0:45
Distance/Time
To Go:
Arrived

Flight Plot

Page will automatically refresh every two minutes.

Flight plan parsing failed; only flown route is shown


Map Options




Map Legend


Flown Route
Filed Route
Departure Airport
Arrival Airport
Navaid (VOR, NDB)
Fix

Horizontal Profiles

Position Reports

Time Latitude Longitude Heading Altitude Ground
Speed
21-Sep-18 08:32 36.079781 -115.146273 342 2148ft 0kts
21-Sep-18 08:33 36.079781 -115.146273 342 2148ft 0kts
21-Sep-18 08:34 36.079781 -115.146273 342 2148ft 0kts
21-Sep-18 08:35 36.079781 -115.146273 342 2148ft 0kts
21-Sep-18 08:36 36.079781 -115.146273 342 2148ft 0kts
21-Sep-18 08:37 36.079781 -115.146273 342 2148ft 0kts
21-Sep-18 08:38 36.079781 -115.146273 342 2148ft 0kts
21-Sep-18 08:39 36.079781 -115.146273 342 2148ft 0kts
21-Sep-18 08:40 36.079781 -115.146273 342 2148ft 0kts
21-Sep-18 08:41 36.079781 -115.146273 342 2148ft 0kts
21-Sep-18 08:42 36.079781 -115.146273 342 2148ft 0kts
21-Sep-18 08:43 36.079781 -115.146273 342 2148ft 0kts
21-Sep-18 08:44 36.079781 -115.146273 342 2148ft 0kts
21-Sep-18 08:45 36.079781 -115.146273 342 2148ft 0kts
21-Sep-18 08:46 36.079573 -115.146189 342 2148ft 2kts
21-Sep-18 08:47 36.079233 -115.145657 262 2148ft 2kts
21-Sep-18 08:48 36.079298 -115.144994 229 2148ft 2kts
21-Sep-18 08:49 36.079528 -115.144890 179 2148ft 0kts
21-Sep-18 08:50 36.079497 -115.144890 179 2148ft 1kts
21-Sep-18 08:51 36.078415 -115.144743 125 2148ft 11kts
21-Sep-18 08:52 36.077522 -115.139649 89 2148ft 20kts
21-Sep-18 08:53 36.077524 -115.131652 89 2148ft 24kts
21-Sep-18 08:54 36.077531 -115.123268 89 2148ft 24kts
21-Sep-18 08:55 36.077339 -115.121432 154 2148ft 0kts
21-Sep-18 08:56 36.077338 -115.121432 154 2148ft 0kts
21-Sep-18 08:57 36.076412 -115.122813 269 2148ft 23kts
21-Sep-18 08:58 36.076365 -115.166208 270 2564ft 190kts
21-Sep-18 08:59 36.072152 -115.242742 238 3941ft 263kts
21-Sep-18 09:00 36.005790 -115.285309 200 6592ft 283kts
21-Sep-18 09:01 35.929196 -115.306669 184 9493ft 289kts
21-Sep-18 09:02 35.847043 -115.314042 175 11727ft 320kts
21-Sep-18 09:03 35.753628 -115.303215 174 13790ft 352kts
21-Sep-18 09:04 35.654892 -115.295212 182 16182ft 363kts
21-Sep-18 09:05 35.552686 -115.299551 182 18455ft 373kts
21-Sep-18 09:06 35.447856 -115.303722 183 20529ft 384kts
21-Sep-18 09:07 35.340203 -115.307968 183 22373ft 395kts
21-Sep-18 09:08 35.229264 -115.312321 184 24033ft 405kts
21-Sep-18 09:09 35.115571 -115.316774 184 25538ft 414kts
21-Sep-18 09:10 34.999637 -115.321302 184 26909ft 424kts
21-Sep-18 09:11 34.884110 -115.325802 185 27930ft 436kts
21-Sep-18 09:12 34.767523 -115.334848 201 28059ft 412kts
21-Sep-18 09:13 34.660608 -115.383454 202 28122ft 413kts
21-Sep-18 09:14 34.552774 -115.430699 202 28146ft 412kts
21-Sep-18 09:15 34.445301 -115.477439 202 28157ft 413kts
21-Sep-18 09:16 34.337391 -115.524411 202 28156ft 413kts
21-Sep-18 09:17 34.239229 -115.593287 213 28157ft 410kts
21-Sep-18 09:18 34.136262 -115.650010 203 28157ft 413kts
21-Sep-18 09:19 34.032783 -115.698943 203 28157ft 412kts
21-Sep-18 09:20 33.926754 -115.748765 203 28157ft 414kts
21-Sep-18 09:21 33.823539 -115.799144 204 28118ft 414kts
21-Sep-18 09:22 33.716523 -115.850402 203 28020ft 414kts
21-Sep-18 09:23 33.609119 -115.900622 203 26203ft 415kts
21-Sep-18 09:24 33.507052 -115.958914 227 24511ft 407kts
21-Sep-18 09:25 33.442905 -116.068838 235 23440ft 403kts
21-Sep-18 09:26 33.380108 -116.177100 234 21651ft 392kts
21-Sep-18 09:27 33.307231 -116.268464 206 19855ft 385kts
21-Sep-18 09:28 33.217664 -116.320316 206 18137ft 365kts
21-Sep-18 09:29 33.129619 -116.371799 206 16332ft 343kts
21-Sep-18 09:30 33.046286 -116.420468 206 14535ft 329kts
21-Sep-18 09:31 32.970650 -116.479169 219 12773ft 327kts
21-Sep-18 09:32 32.903410 -116.547326 219 11083ft 312kts
21-Sep-18 09:33 32.841888 -116.609116 219 9674ft 291kts
21-Sep-18 09:34 32.785218 -116.666141 219 8404ft 274kts
21-Sep-18 09:35 32.744650 -116.739561 240 7157ft 268kts
21-Sep-18 09:36 32.709142 -116.814579 242 5964ft 250kts
21-Sep-18 09:37 32.686485 -116.885579 250 5184ft 223kts
21-Sep-18 09:38 32.676720 -116.955621 285 4057ft 220kts
21-Sep-18 09:39 32.692615 -117.021331 286 3043ft 199kts
21-Sep-18 09:40 32.706939 -117.080222 286 2315ft 188kts
21-Sep-18 09:41 32.720221 -117.134759 286 1363ft 157kts
21-Sep-18 09:42 32.731648 -117.181713 286 49ft 140kts
21-Sep-18 09:43 32.735139 -117.198163 236 24ft 4kts
21-Sep-18 09:44 32.733461 -117.194254 156 24ft 11kts
21-Sep-18 09:45 32.732865 -117.195478 277 24ft 0kts

Navigation Log

Ident Type
Flight plan parsing failed, navigation log unavailable